sensor_id;sensor_type;location;lat;lon;timestamp;P1;durP1;ratioP1;P2;durP2;ratioP2
65757;SDS011;52495;52.208;5.158;2023-05-10T00:00:38;43.22;;;26.38;;
65757;SDS011;52495;52.208;5.158;2023-05-10T00:03:06;42.75;;;26.27;;
65757;SDS011;52495;52.208;5.158;2023-05-10T00:05:32;43.92;;;26.42;;
65757;SDS011;52495;52.208;5.158;2023-05-10T00:07:59;44.58;;;26.20;;
65757;SDS011;52495;52.208;5.158;2023-05-10T00:10:26;43.55;;;25.88;;
65757;SDS011;52495;52.208;5.158;2023-05-10T00:12:53;42.65;;;24.63;;
65757;SDS011;52495;52.208;5.158;2023-05-10T00:15:21;40.47;;;26.02;;
65757;SDS011;52495;52.208;5.158;2023-05-10T00:17:47;42.53;;;26.27;;
65757;SDS011;52495;52.208;5.158;2023-05-10T00:20:14;44.92;;;26.70;;
65757;SDS011;52495;52.208;5.158;2023-05-10T00:22:41;43.03;;;26.85;;
65757;SDS011;52495;52.208;5.158;2023-05-10T00:25:08;44.08;;;26.15;;
65757;SDS011;52495;52.208;5.158;2023-05-10T00:27:35;42.70;;;25.73;;
65757;SDS011;52495;52.208;5.158;2023-05-10T00:30:02;39.05;;;24.85;;
65757;SDS011;52495;52.208;5.158;2023-05-10T00:32:31;39.17;;;23.40;;
65757;SDS011;52495;52.208;5.158;2023-05-10T00:34:58;40.35;;;24.65;;
65757;SDS011;52495;52.208;5.158;2023-05-10T00:37:25;39.05;;;24.65;;
65757;SDS011;52495;52.208;5.158;2023-05-10T00:39:53;48.08;;;25.35;;
65757;SDS011;52495;52.208;5.158;2023-05-10T00:42:20;61.72;;;28.80;;
65757;SDS011;52495;52.208;5.158;2023-05-10T00:44:47;46.85;;;27.23;;
65757;SDS011;52495;52.208;5.158;2023-05-10T00:47:14;49.45;;;29.20;;
65757;SDS011;52495;52.208;5.158;2023-05-10T00:49:43;46.20;;;27.80;;
65757;SDS011;52495;52.208;5.158;2023-05-10T00:52:11;50.80;;;28.58;;
65757;SDS011;52495;52.208;5.158;2023-05-10T00:54:38;53.22;;;30.80;;
65757;SDS011;52495;52.208;5.158;2023-05-10T00:57:05;50.13;;;29.52;;
65757;SDS011;52495;52.208;5.158;2023-05-10T00:59:32;52.38;;;30.27;;
65757;SDS011;52495;52.208;5.158;2023-05-10T01:02:00;58.35;;;29.98;;
65757;SDS011;52495;52.208;5.158;2023-05-10T01:04:28;50.17;;;30.13;;
65757;SDS011;52495;52.208;5.158;2023-05-10T01:06:57;54.17;;;31.83;;
65757;SDS011;52495;52.208;5.158;2023-05-10T01:09:24;55.15;;;30.88;;
65757;SDS011;52495;52.208;5.158;2023-05-10T01:11:53;51.10;;;31.05;;
65757;SDS011;52495;52.208;5.158;2023-05-10T01:14:21;51.45;;;30.08;;
65757;SDS011;52495;52.208;5.158;2023-05-10T01:16:48;49.63;;;31.92;;
65757;SDS011;52495;52.208;5.158;2023-05-10T01:19:17;53.90;;;31.17;;
65757;SDS011;52495;52.208;5.158;2023-05-10T01:21:49;57.78;;;34.33;;
65757;SDS011;52495;52.208;5.158;2023-05-10T01:27:42;51.08;;;32.22;;
65757;SDS011;52495;52.208;5.158;2023-05-10T01:30:36;56.90;;;33.13;;
65757;SDS011;52495;52.208;5.158;2023-05-10T01:33:20;57.17;;;32.45;;
65757;SDS011;52495;52.208;5.158;2023-05-10T01:35:52;56.30;;;31.73;;
65757;SDS011;52495;52.208;5.158;2023-05-10T01:38:27;55.42;;;32.53;;
65757;SDS011;52495;52.208;5.158;2023-05-10T01:41:01;57.92;;;32.65;;
65757;SDS011;52495;52.208;5.158;2023-05-10T01:43:41;68.22;;;34.67;;
65757;SDS011;52495;52.208;5.158;2023-05-10T01:46:16;61.80;;;33.70;;
65757;SDS011;52495;52.208;5.158;2023-05-10T01:48:51;67.15;;;35.88;;
65757;SDS011;52495;52.208;5.158;2023-05-10T01:51:22;64.57;;;37.03;;
65757;SDS011;52495;52.208;5.158;2023-05-10T01:53:54;66.93;;;35.35;;
65757;SDS011;52495;52.208;5.158;2023-05-10T01:56:25;61.40;;;33.70;;
65757;SDS011;52495;52.208;5.158;2023-05-10T01:58:54;68.18;;;38.15;;
65757;SDS011;52495;52.208;5.158;2023-05-10T02:01:22;66.45;;;36.03;;
65757;SDS011;52495;52.208;5.158;2023-05-10T02:03:52;74.53;;;38.10;;
65757;SDS011;52495;52.208;5.158;2023-05-10T02:06:20;72.75;;;37.40;;
65757;SDS011;52495;52.208;5.158;2023-05-10T02:08:51;66.03;;;35.58;;
65757;SDS011;52495;52.208;5.158;2023-05-10T02:11:20;66.65;;;37.50;;
65757;SDS011;52495;52.208;5.158;2023-05-10T02:13:48;72.32;;;37.83;;
65757;SDS011;52495;52.208;5.158;2023-05-10T02:16:16;68.53;;;37.83;;
65757;SDS011;52495;52.208;5.158;2023-05-10T02:18:48;68.47;;;36.90;;
65757;SDS011;52495;52.208;5.158;2023-05-10T02:21:18;72.88;;;38.78;;
65757;SDS011;52495;52.208;5.158;2023-05-10T02:23:46;65.68;;;36.08;;
65757;SDS011;52495;52.208;5.158;2023-05-10T02:26:17;70.47;;;37.08;;
65757;SDS011;52495;52.208;5.158;2023-05-10T02:28:47;75.80;;;38.45;;
65757;SDS011;52495;52.208;5.158;2023-05-10T02:31:15;67.63;;;36.85;;
65757;SDS011;52495;52.208;5.158;2023-05-10T02:33:44;69.00;;;35.28;;
65757;SDS011;52495;52.208;5.158;2023-05-10T02:36:12;61.83;;;34.05;;
65757;SDS011;52495;52.208;5.158;2023-05-10T02:38:41;69.70;;;36.15;;
65757;SDS011;52495;52.208;5.158;2023-05-10T02:41:09;66.13;;;35.50;;
65757;SDS011;52495;52.208;5.158;2023-05-10T02:43:37;67.85;;;36.33;;
65757;SDS011;52495;52.208;5.158;2023-05-10T02:46:07;70.00;;;36.33;;
65757;SDS011;52495;52.208;5.158;2023-05-10T02:48:34;69.05;;;36.33;;
65757;SDS011;52495;52.208;5.158;2023-05-10T02:51:03;71.15;;;36.05;;
65757;SDS011;52495;52.208;5.158;2023-05-10T02:53:34;73.13;;;39.00;;
65757;SDS011;52495;52.208;5.158;2023-05-10T02:56:08;79.30;;;40.58;;
65757;SDS011;52495;52.208;5.158;2023-05-10T02:58:39;83.97;;;43.38;;
65757;SDS011;52495;52.208;5.158;2023-05-10T03:01:06;92.30;;;42.40;;
65757;SDS011;52495;52.208;5.158;2023-05-10T03:03:33;115.43;;;47.97;;
65757;SDS011;52495;52.208;5.158;2023-05-10T03:06:00;94.00;;;40.92;;
65757;SDS011;52495;52.208;5.158;2023-05-10T03:08:27;92.00;;;41.22;;
65757;SDS011;52495;52.208;5.158;2023-05-10T03:10:58;90.88;;;38.75;;
65757;SDS011;52495;52.208;5.158;2023-05-10T03:13:43;100.43;;;41.28;;
65757;SDS011;52495;52.208;5.158;2023-05-10T03:16:19;96.50;;;39.00;;
65757;SDS011;52495;52.208;5.158;2023-05-10T03:18:54;94.90;;;39.47;;
65757;SDS011;52495;52.208;5.158;2023-05-10T03:21:25;86.65;;;36.83;;
65757;SDS011;52495;52.208;5.158;2023-05-10T03:23:56;89.45;;;37.67;;
65757;SDS011;52495;52.208;5.158;2023-05-10T03:26:27;90.07;;;37.30;;
65757;SDS011;52495;52.208;5.158;2023-05-10T03:29:05;91.47;;;36.30;;
65757;SDS011;52495;52.208;5.158;2023-05-10T03:31:33;85.32;;;36.58;;
65757;SDS011;52495;52.208;5.158;2023-05-10T03:34:00;85.25;;;36.58;;
65757;SDS011;52495;52.208;5.158;2023-05-10T03:36:27;83.75;;;34.08;;
65757;SDS011;52495;52.208;5.158;2023-05-10T03:38:54;81.10;;;33.45;;
65757;SDS011;52495;52.208;5.158;2023-05-10T03:41:22;78.57;;;34.85;;
65757;SDS011;52495;52.208;5.158;2023-05-10T03:43:50;76.55;;;31.63;;
65757;SDS011;52495;52.208;5.158;2023-05-10T03:46:17;75.65;;;31.40;;
65757;SDS011;52495;52.208;5.158;2023-05-10T03:48:44;75.75;;;33.00;;
65757;SDS011;52495;52.208;5.158;2023-05-10T03:51:10;75.95;;;29.90;;
65757;SDS011;52495;52.208;5.158;2023-05-10T03:53:38;77.18;;;32.25;;
65757;SDS011;52495;52.208;5.158;2023-05-10T03:56:05;86.20;;;34.28;;
65757;SDS011;52495;52.208;5.158;2023-05-10T03:58:32;64.65;;;30.88;;
65757;SDS011;52495;52.208;5.158;2023-05-10T04:01:00;62.45;;;29.45;;
65757;SDS011;52495;52.208;5.158;2023-05-10T04:03:27;66.22;;;31.80;;
65757;SDS011;52495;52.208;5.158;2023-05-10T04:05:58;70.15;;;32.50;;
65757;SDS011;52495;52.208;5.158;2023-05-10T04:08:26;76.35;;;34.55;;
65757;SDS011;52495;52.208;5.158;2023-05-10T04:10:52;78.65;;;36.58;;
65757;SDS011;52495;52.208;5.158;2023-05-10T04:13:19;77.07;;;36.78;;
65757;SDS011;52495;52.208;5.158;2023-05-10T04:15:46;78.63;;;36.53;;
65757;SDS011;52495;52.208;5.158;2023-05-10T04:18:14;70.68;;;33.75;;
65757;SDS011;52495;52.208;5.158;2023-05-10T04:20:42;69.45;;;34.97;;
65757;SDS011;52495;52.208;5.158;2023-05-10T04:23:08;65.10;;;33.17;;
65757;SDS011;52495;52.208;5.158;2023-05-10T04:25:35;69.53;;;36.70;;
65757;SDS011;52495;52.208;5.158;2023-05-10T04:28:02;84.22;;;39.45;;
65757;SDS011;52495;52.208;5.158;2023-05-10T04:30:29;84.78;;;36.70;;
65757;SDS011;52495;52.208;5.158;2023-05-10T04:32:56;78.35;;;34.13;;
65757;SDS011;52495;52.208;5.158;2023-05-10T04:35:24;75.72;;;36.25;;
65757;SDS011;52495;52.208;5.158;2023-05-10T04:37:51;75.28;;;33.97;;
65757;SDS011;52495;52.208;5.158;2023-05-10T04:40:18;77.35;;;32.90;;
65757;SDS011;52495;52.208;5.158;2023-05-10T04:42:45;76.40;;;29.77;;
65757;SDS011;52495;52.208;5.158;2023-05-10T04:45:11;75.85;;;31.90;;
65757;SDS011;52495;52.208;5.158;2023-05-10T04:47:39;75.80;;;31.58;;
65757;SDS011;52495;52.208;5.158;2023-05-10T04:50:06;66.78;;;32.63;;
65757;SDS011;52495;52.208;5.158;2023-05-10T04:52:35;75.47;;;32.88;;
65757;SDS011;52495;52.208;5.158;2023-05-10T04:55:02;71.47;;;31.98;;
65757;SDS011;52495;52.208;5.158;2023-05-10T04:57:29;61.45;;;32.42;;
65757;SDS011;52495;52.208;5.158;2023-05-10T04:59:56;73.43;;;33.55;;
65757;SDS011;52495;52.208;5.158;2023-05-10T05:02:23;73.55;;;35.05;;
65757;SDS011;52495;52.208;5.158;2023-05-10T05:04:49;78.75;;;37.88;;
65757;SDS011;52495;52.208;5.158;2023-05-10T05:07:16;79.47;;;36.72;;
65757;SDS011;52495;52.208;5.158;2023-05-10T05:09:44;57.20;;;32.33;;
65757;SDS011;52495;52.208;5.158;2023-05-10T05:12:11;66.40;;;34.65;;
65757;SDS011;52495;52.208;5.158;2023-05-10T05:14:39;63.88;;;31.45;;
65757;SDS011;52495;52.208;5.158;2023-05-10T05:17:06;55.85;;;26.30;;
65757;SDS011;52495;52.208;5.158;2023-05-10T05:19:33;38.78;;;20.40;;
65757;SDS011;52495;52.208;5.158;2023-05-10T05:22:00;40.80;;;22.48;;
65757;SDS011;52495;52.208;5.158;2023-05-10T05:24:27;41.55;;;22.40;;
65757;SDS011;52495;52.208;5.158;2023-05-10T05:26:55;41.03;;;21.60;;
65757;SDS011;52495;52.208;5.158;2023-05-10T05:29:22;38.17;;;20.65;;
65757;SDS011;52495;52.208;5.158;2023-05-10T05:31:49;36.22;;;20.90;;
65757;SDS011;52495;52.208;5.158;2023-05-10T05:34:15;37.58;;;20.52;;
65757;SDS011;52495;52.208;5.158;2023-05-10T05:36:42;36.42;;;20.08;;
65757;SDS011;52495;52.208;5.158;2023-05-10T05:39:09;33.45;;;19.77;;
65757;SDS011;52495;52.208;5.158;2023-05-10T05:41:36;31.15;;;17.30;;
65757;SDS011;52495;52.208;5.158;2023-05-10T05:44:04;30.63;;;16.88;;
65757;SDS011;52495;52.208;5.158;2023-05-10T05:46:30;27.10;;;15.52;;
65757;SDS011;52495;52.208;5.158;2023-05-10T05:48:57;26.52;;;15.65;;
65757;SDS011;52495;52.208;5.158;2023-05-10T05:51:24;25.98;;;15.65;;
65757;SDS011;52495;52.208;5.158;2023-05-10T05:53:51;26.67;;;16.00;;
65757;SDS011;52495;52.208;5.158;2023-05-10T05:56:18;24.48;;;15.30;;
65757;SDS011;52495;52.208;5.158;2023-05-10T05:58:49;25.90;;;15.63;;
65757;SDS011;52495;52.208;5.158;2023-05-10T06:01:17;23.98;;;15.02;;
65757;SDS011;52495;52.208;5.158;2023-05-10T06:03:44;26.50;;;15.38;;
65757;SDS011;52495;52.208;5.158;2023-05-10T06:06:11;25.75;;;15.20;;
65757;SDS011;52495;52.208;5.158;2023-05-10T06:08:37;23.15;;;13.52;;
65757;SDS011;52495;52.208;5.158;2023-05-10T06:11:04;30.25;;;17.10;;
65757;SDS011;52495;52.208;5.158;2023-05-10T06:13:31;26.50;;;15.52;;
65757;SDS011;52495;52.208;5.158;2023-05-10T06:16:00;30.08;;;18.13;;
65757;SDS011;52495;52.208;5.158;2023-05-10T06:18:28;36.97;;;19.77;;
65757;SDS011;52495;52.208;5.158;2023-05-10T06:20:55;37.13;;;19.33;;
65757;SDS011;52495;52.208;5.158;2023-05-10T06:23:22;31.70;;;18.58;;
65757;SDS011;52495;52.208;5.158;2023-05-10T06:25:50;35.53;;;20.08;;
65757;SDS011;52495;52.208;5.158;2023-05-10T06:28:17;32.47;;;17.73;;
65757;SDS011;52495;52.208;5.158;2023-05-10T06:30:44;36.70;;;19.02;;
65757;SDS011;52495;52.208;5.158;2023-05-10T06:33:11;27.90;;;17.83;;
65757;SDS011;52495;52.208;5.158;2023-05-10T06:35:39;31.30;;;16.55;;
65757;SDS011;52495;52.208;5.158;2023-05-10T06:38:06;28.50;;;17.65;;
65757;SDS011;52495;52.208;5.158;2023-05-10T06:40:33;31.27;;;17.63;;
65757;SDS011;52495;52.208;5.158;2023-05-10T06:43:01;31.67;;;17.77;;
65757;SDS011;52495;52.208;5.158;2023-05-10T06:45:28;26.55;;;15.15;;
65757;SDS011;52495;52.208;5.158;2023-05-10T06:47:54;28.35;;;16.02;;
65757;SDS011;52495;52.208;5.158;2023-05-10T06:50:21;29.42;;;16.27;;
65757;SDS011;52495;52.208;5.158;2023-05-10T06:52:50;27.20;;;15.80;;
65757;SDS011;52495;52.208;5.158;2023-05-10T06:55:17;25.05;;;13.65;;
65757;SDS011;52495;52.208;5.158;2023-05-10T06:57:43;24.58;;;13.90;;
65757;SDS011;52495;52.208;5.158;2023-05-10T07:00:11;23.50;;;14.77;;
65757;SDS011;52495;52.208;5.158;2023-05-10T07:02:38;19.75;;;13.95;;
65757;SDS011;52495;52.208;5.158;2023-05-10T07:05:05;24.75;;;14.57;;
65757;SDS011;52495;52.208;5.158;2023-05-10T07:07:32;23.20;;;14.75;;
65757;SDS011;52495;52.208;5.158;2023-05-10T07:10:00;24.20;;;14.82;;
65757;SDS011;52495;52.208;5.158;2023-05-10T07:12:27;22.65;;;15.48;;
65757;SDS011;52495;52.208;5.158;2023-05-10T07:14:54;25.40;;;15.23;;
65757;SDS011;52495;52.208;5.158;2023-05-10T07:17:21;23.33;;;15.52;;
65757;SDS011;52495;52.208;5.158;2023-05-10T07:19:48;26.23;;;15.55;;
65757;SDS011;52495;52.208;5.158;2023-05-10T07:22:15;23.73;;;15.27;;
65757;SDS011;52495;52.208;5.158;2023-05-10T07:24:42;20.33;;;13.30;;
65757;SDS011;52495;52.208;5.158;2023-05-10T07:27:11;27.95;;;15.50;;
65757;SDS011;52495;52.208;5.158;2023-05-10T07:29:38;22.95;;;14.70;;
65757;SDS011;52495;52.208;5.158;2023-05-10T07:32:05;22.23;;;13.98;;
65757;SDS011;52495;52.208;5.158;2023-05-10T07:34:32;23.67;;;14.43;;
65757;SDS011;52495;52.208;5.158;2023-05-10T07:36:59;23.15;;;14.52;;
65757;SDS011;52495;52.208;5.158;2023-05-10T07:39:26;21.23;;;14.55;;
65757;SDS011;52495;52.208;5.158;2023-05-10T07:41:53;24.52;;;14.43;;
65757;SDS011;52495;52.208;5.158;2023-05-10T07:44:21;23.15;;;14.60;;
65757;SDS011;52495;52.208;5.158;2023-05-10T07:46:48;21.08;;;14.13;;
65757;SDS011;52495;52.208;5.158;2023-05-10T07:49:15;23.77;;;14.73;;
65757;SDS011;52495;52.208;5.158;2023-05-10T07:51:42;20.48;;;13.90;;
65757;SDS011;52495;52.208;5.158;2023-05-10T07:54:09;19.48;;;13.63;;
65757;SDS011;52495;52.208;5.158;2023-05-10T07:56:36;19.58;;;14.10;;
65757;SDS011;52495;52.208;5.158;2023-05-10T07:59:03;21.00;;;14.23;;
65757;SDS011;52495;52.208;5.158;2023-05-10T08:01:33;19.10;;;13.57;;
65757;SDS011;52495;52.208;5.158;2023-05-10T08:04:00;22.65;;;15.45;;
65757;SDS011;52495;52.208;5.158;2023-05-10T08:06:27;24.73;;;14.95;;
65757;SDS011;52495;52.208;5.158;2023-05-10T08:08:55;25.45;;;15.45;;
65757;SDS011;52495;52.208;5.158;2023-05-10T08:11:22;23.40;;;14.50;;
65757;SDS011;52495;52.208;5.158;2023-05-10T08:13:49;21.73;;;14.93;;
65757;SDS011;52495;52.208;5.158;2023-05-10T08:16:17;17.63;;;12.10;;
65757;SDS011;52495;52.208;5.158;2023-05-10T08:18:45;20.58;;;13.32;;
65757;SDS011;52495;52.208;5.158;2023-05-10T08:21:14;19.27;;;13.13;;
65757;SDS011;52495;52.208;5.158;2023-05-10T08:23:41;17.98;;;13.05;;
65757;SDS011;52495;52.208;5.158;2023-05-10T08:26:09;18.60;;;12.20;;
65757;SDS011;52495;52.208;5.158;2023-05-10T08:28:36;15.85;;;12.43;;
65757;SDS011;52495;52.208;5.158;2023-05-10T08:31:13;19.20;;;13.55;;
65757;SDS011;52495;52.208;5.158;2023-05-10T08:33:39;19.52;;;11.82;;
65757;SDS011;52495;52.208;5.158;2023-05-10T08:36:08;18.10;;;12.60;;
65757;SDS011;52495;52.208;5.158;2023-05-10T08:38:35;14.88;;;11.75;;
65757;SDS011;52495;52.208;5.158;2023-05-10T08:41:20;17.33;;;12.25;;
65757;SDS011;52495;52.208;5.158;2023-05-10T08:43:49;12.20;;;9.68;;
65757;SDS011;52495;52.208;5.158;2023-05-10T08:46:17;14.93;;;10.15;;
65757;SDS011;52495;52.208;5.158;2023-05-10T08:48:46;15.82;;;10.75;;
65757;SDS011;52495;52.208;5.158;2023-05-10T08:51:17;15.98;;;10.25;;
65757;SDS011;52495;52.208;5.158;2023-05-10T08:53:46;13.75;;;10.52;;
65757;SDS011;52495;52.208;5.158;2023-05-10T08:56:14;14.95;;;11.07;;
65757;SDS011;52495;52.208;5.158;2023-05-10T08:58:43;17.38;;;10.88;;
65757;SDS011;52495;52.208;5.158;2023-05-10T09:01:10;15.57;;;10.55;;
65757;SDS011;52495;52.208;5.158;2023-05-10T09:03:39;15.00;;;10.82;;
65757;SDS011;52495;52.208;5.158;2023-05-10T09:06:06;15.07;;;9.95;;
65757;SDS011;52495;52.208;5.158;2023-05-10T09:08:34;14.48;;;10.48;;
65757;SDS011;52495;52.208;5.158;2023-05-10T09:11:03;14.43;;;9.65;;
65757;SDS011;52495;52.208;5.158;2023-05-10T09:13:31;13.25;;;10.27;;
65757;SDS011;52495;52.208;5.158;2023-05-10T09:15:59;13.93;;;10.02;;
65757;SDS011;52495;52.208;5.158;2023-05-10T09:18:26;14.38;;;9.68;;
65757;SDS011;52495;52.208;5.158;2023-05-10T09:20:53;13.82;;;10.30;;
65757;SDS011;52495;52.208;5.158;2023-05-10T09:23:20;14.50;;;9.65;;
65757;SDS011;52495;52.208;5.158;2023-05-10T09:25:48;11.80;;;8.40;;
65757;SDS011;52495;52.208;5.158;2023-05-10T09:28:31;12.68;;;9.10;;
65757;SDS011;52495;52.208;5.158;2023-05-10T09:30:58;13.45;;;8.95;;
65757;SDS011;52495;52.208;5.158;2023-05-10T09:33:25;11.85;;;8.77;;
65757;SDS011;52495;52.208;5.158;2023-05-10T09:35:52;10.27;;;7.80;;
65757;SDS011;52495;52.208;5.158;2023-05-10T09:38:19;10.80;;;7.45;;
65757;SDS011;52495;52.208;5.158;2023-05-10T09:40:52;10.75;;;7.78;;
65757;SDS011;52495;52.208;5.158;2023-05-10T09:43:20;9.52;;;7.00;;
65757;SDS011;52495;52.208;5.158;2023-05-10T09:45:48;11.82;;;7.90;;
65757;SDS011;52495;52.208;5.158;2023-05-10T09:48:15;11.52;;;6.95;;
65757;SDS011;52495;52.208;5.158;2023-05-10T09:50:42;11.88;;;7.97;;
65757;SDS011;52495;52.208;5.158;2023-05-10T09:53:09;10.60;;;8.35;;
65757;SDS011;52495;52.208;5.158;2023-05-10T09:55:41;10.40;;;7.53;;
65757;SDS011;52495;52.208;5.158;2023-05-10T09:58:11;12.25;;;7.50;;
65757;SDS011;52495;52.208;5.158;2023-05-10T10:00:40;9.77;;;7.18;;
65757;SDS011;52495;52.208;5.158;2023-05-10T10:03:11;11.65;;;7.15;;
65757;SDS011;52495;52.208;5.158;2023-05-10T10:05:39;10.30;;;6.70;;
65757;SDS011;52495;52.208;5.158;2023-05-10T10:08:07;8.77;;;7.32;;
65757;SDS011;52495;52.208;5.158;2023-05-10T10:10:34;10.50;;;8.65;;
65757;SDS011;52495;52.208;5.158;2023-05-10T10:13:01;9.80;;;6.90;;
65757;SDS011;52495;52.208;5.158;2023-05-10T10:15:31;9.25;;;5.82;;
65757;SDS011;52495;52.208;5.158;2023-05-10T10:17:59;10.30;;;6.18;;
65757;SDS011;52495;52.208;5.158;2023-05-10T10:20:28;9.25;;;6.25;;
65757;SDS011;52495;52.208;5.158;2023-05-10T10:22:55;10.00;;;6.50;;
65757;SDS011;52495;52.208;5.158;2023-05-10T10:25:22;7.78;;;5.30;;
65757;SDS011;52495;52.208;5.158;2023-05-10T10:28:02;10.20;;;4.90;;
65757;SDS011;52495;52.208;5.158;2023-05-10T10:30:59;7.50;;;5.07;;
65757;SDS011;52495;52.208;5.158;2023-05-10T10:33:40;8.75;;;4.78;;
65757;SDS011;52495;52.208;5.158;2023-05-10T10:36:22;10.70;;;5.68;;
65757;SDS011;52495;52.208;5.158;2023-05-10T10:38:56;8.80;;;5.53;;
65757;SDS011;52495;52.208;5.158;2023-05-10T10:41:29;9.65;;;5.70;;
65757;SDS011;52495;52.208;5.158;2023-05-10T10:49:50;7.55;;;4.78;;
65757;SDS011;52495;52.208;5.158;2023-05-10T10:52:21;12.18;;;7.47;;
65757;SDS011;52495;52.208;5.158;2023-05-10T10:55:01;8.05;;;5.22;;
65757;SDS011;52495;52.208;5.158;2023-05-10T10:57:42;8.20;;;5.75;;
65757;SDS011;52495;52.208;5.158;2023-05-10T11:00:20;7.55;;;5.35;;
65757;SDS011;52495;52.208;5.158;2023-05-10T11:02:49;9.75;;;5.13;;
65757;SDS011;52495;52.208;5.158;2023-05-10T11:10:34;9.18;;;5.43;;
65757;SDS011;52495;52.208;5.158;2023-05-10T11:13:01;7.72;;;5.25;;
65757;SDS011;52495;52.208;5.158;2023-05-10T11:15:29;11.30;;;5.97;;
65757;SDS011;52495;52.208;5.158;2023-05-10T11:17:56;8.25;;;5.40;;
65757;SDS011;52495;52.208;5.158;2023-05-10T11:20:23;6.68;;;4.68;;
65757;SDS011;52495;52.208;5.158;2023-05-10T11:22:59;7.28;;;5.55;;
65757;SDS011;52495;52.208;5.158;2023-05-10T11:25:42;7.70;;;5.17;;
65757;SDS011;52495;52.208;5.158;2023-05-10T11:28:10;7.50;;;5.05;;
65757;SDS011;52495;52.208;5.158;2023-05-10T11:30:37;6.80;;;4.20;;
65757;SDS011;52495;52.208;5.158;2023-05-10T11:33:05;10.27;;;4.20;;
65757;SDS011;52495;52.208;5.158;2023-05-10T11:35:36;7.47;;;4.10;;
65757;SDS011;52495;52.208;5.158;2023-05-10T11:38:05;6.68;;;4.13;;
65757;SDS011;52495;52.208;5.158;2023-05-10T11:40:33;6.97;;;4.15;;
65757;SDS011;52495;52.208;5.158;2023-05-10T11:43:01;5.88;;;3.92;;
65757;SDS011;52495;52.208;5.158;2023-05-10T11:45:29;7.72;;;4.60;;
65757;SDS011;52495;52.208;5.158;2023-05-10T11:47:57;6.22;;;4.05;;
65757;SDS011;52495;52.208;5.158;2023-05-10T11:50:24;7.20;;;4.75;;
65757;SDS011;52495;52.208;5.158;2023-05-10T11:52:52;6.20;;;4.28;;
65757;SDS011;52495;52.208;5.158;2023-05-10T11:55:19;7.95;;;4.50;;
65757;SDS011;52495;52.208;5.158;2023-05-10T11:57:46;7.40;;;4.85;;
65757;SDS011;52495;52.208;5.158;2023-05-10T12:00:15;8.15;;;4.80;;
65757;SDS011;52495;52.208;5.158;2023-05-10T12:02:42;11.13;;;4.15;;
65757;SDS011;52495;52.208;5.158;2023-05-10T12:05:09;6.78;;;4.40;;
65757;SDS011;52495;52.208;5.158;2023-05-10T12:07:36;7.63;;;4.75;;
65757;SDS011;52495;52.208;5.158;2023-05-10T12:10:04;5.60;;;4.38;;
65757;SDS011;52495;52.208;5.158;2023-05-10T12:12:38;7.47;;;4.30;;
65757;SDS011;52495;52.208;5.158;2023-05-10T12:15:10;6.40;;;3.85;;
65757;SDS011;52495;52.208;5.158;2023-05-10T12:17:39;7.20;;;3.97;;
65757;SDS011;52495;52.208;5.158;2023-05-10T12:20:19;7.43;;;4.10;;
65757;SDS011;52495;52.208;5.158;2023-05-10T12:22:49;7.75;;;4.45;;
65757;SDS011;52495;52.208;5.158;2023-05-10T12:25:17;7.10;;;4.65;;
65757;SDS011;52495;52.208;5.158;2023-05-10T12:27:51;7.43;;;4.60;;
65757;SDS011;52495;52.208;5.158;2023-05-10T12:30:18;6.55;;;4.78;;
65757;SDS011;52495;52.208;5.158;2023-05-10T12:32:48;11.05;;;5.65;;
65757;SDS011;52495;52.208;5.158;2023-05-10T12:35:16;9.90;;;5.10;;
65757;SDS011;52495;52.208;5.158;2023-05-10T12:37:46;7.28;;;4.78;;
65757;SDS011;52495;52.208;5.158;2023-05-10T12:40:12;8.18;;;5.75;;
65757;SDS011;52495;52.208;5.158;2023-05-10T12:42:40;10.57;;;6.63;;
65757;SDS011;52495;52.208;5.158;2023-05-10T12:45:07;11.52;;;6.82;;
65757;SDS011;52495;52.208;5.158;2023-05-10T12:47:35;8.93;;;6.43;;
65757;SDS011;52495;52.208;5.158;2023-05-10T12:50:04;9.48;;;6.53;;
65757;SDS011;52495;52.208;5.158;2023-05-10T12:52:32;11.18;;;6.57;;
65757;SDS011;52495;52.208;5.158;2023-05-10T12:54:59;11.35;;;6.68;;
65757;SDS011;52495;52.208;5.158;2023-05-10T12:57:26;13.07;;;8.20;;
65757;SDS011;52495;52.208;5.158;2023-05-10T12:59:53;15.05;;;9.50;;
65757;SDS011;52495;52.208;5.158;2023-05-10T13:02:21;19.13;;;10.50;;
65757;SDS011;52495;52.208;5.158;2023-05-10T13:04:48;17.88;;;11.55;;
65757;SDS011;52495;52.208;5.158;2023-05-10T13:07:17;20.20;;;12.73;;
65757;SDS011;52495;52.208;5.158;2023-05-10T13:09:44;19.90;;;11.38;;
65757;SDS011;52495;52.208;5.158;2023-05-10T13:12:11;21.77;;;13.13;;
65757;SDS011;52495;52.208;5.158;2023-05-10T13:14:37;18.05;;;11.38;;
65757;SDS011;52495;52.208;5.158;2023-05-10T13:17:05;21.33;;;12.77;;
65757;SDS011;52495;52.208;5.158;2023-05-10T13:19:32;19.10;;;12.27;;
65757;SDS011;52495;52.208;5.158;2023-05-10T13:21:59;20.88;;;12.23;;
65757;SDS011;52495;52.208;5.158;2023-05-10T13:24:27;21.00;;;11.80;;
65757;SDS011;52495;52.208;5.158;2023-05-10T13:26:54;21.08;;;11.95;;
65757;SDS011;52495;52.208;5.158;2023-05-10T13:29:21;21.20;;;12.13;;
65757;SDS011;52495;52.208;5.158;2023-05-10T13:31:48;19.35;;;11.13;;
65757;SDS011;52495;52.208;5.158;2023-05-10T13:34:15;18.50;;;11.05;;
65757;SDS011;52495;52.208;5.158;2023-05-10T13:36:41;19.40;;;10.40;;
65757;SDS011;52495;52.208;5.158;2023-05-10T13:39:08;17.35;;;9.65;;
65757;SDS011;52495;52.208;5.158;2023-05-10T13:41:36;14.90;;;9.13;;
65757;SDS011;52495;52.208;5.158;2023-05-10T13:44:03;16.20;;;9.73;;
65757;SDS011;52495;52.208;5.158;2023-05-10T13:46:30;15.63;;;8.38;;
65757;SDS011;52495;52.208;5.158;2023-05-10T13:48:56;14.60;;;7.68;;
65757;SDS011;52495;52.208;5.158;2023-05-10T13:51:23;15.27;;;9.55;;
65757;SDS011;52495;52.208;5.158;2023-05-10T13:53:52;14.27;;;8.68;;
65757;SDS011;52495;52.208;5.158;2023-05-10T13:56:19;14.60;;;8.90;;
65757;SDS011;52495;52.208;5.158;2023-05-10T13:58:47;14.52;;;7.82;;
65757;SDS011;52495;52.208;5.158;2023-05-10T14:01:14;15.52;;;8.30;;
65757;SDS011;52495;52.208;5.158;2023-05-10T14:03:40;13.05;;;7.60;;
65757;SDS011;52495;52.208;5.158;2023-05-10T14:06:07;15.95;;;8.48;;
65757;SDS011;52495;52.208;5.158;2023-05-10T14:08:34;14.85;;;8.05;;
65757;SDS011;52495;52.208;5.158;2023-05-10T14:11:01;14.07;;;8.57;;
65757;SDS011;52495;52.208;5.158;2023-05-10T14:13:28;16.30;;;8.68;;
65757;SDS011;52495;52.208;5.158;2023-05-10T14:15:57;11.65;;;8.15;;
65757;SDS011;52495;52.208;5.158;2023-05-10T14:18:25;12.68;;;7.95;;
65757;SDS011;52495;52.208;5.158;2023-05-10T14:20:52;12.18;;;7.72;;
65757;SDS011;52495;52.208;5.158;2023-05-10T14:23:19;11.80;;;7.22;;
65757;SDS011;52495;52.208;5.158;2023-05-10T14:25:49;11.77;;;7.22;;
65757;SDS011;52495;52.208;5.158;2023-05-10T14:28:16;11.85;;;7.13;;
65757;SDS011;52495;52.208;5.158;2023-05-10T14:30:43;14.73;;;8.02;;
65757;SDS011;52495;52.208;5.158;2023-05-10T14:33:11;10.98;;;6.93;;
65757;SDS011;52495;52.208;5.158;2023-05-10T14:35:38;10.98;;;6.97;;
65757;SDS011;52495;52.208;5.158;2023-05-10T14:38:05;11.60;;;7.20;;
65757;SDS011;52495;52.208;5.158;2023-05-10T14:40:32;10.88;;;6.65;;
65757;SDS011;52495;52.208;5.158;2023-05-10T14:42:59;12.23;;;7.43;;
65757;SDS011;52495;52.208;5.158;2023-05-10T14:45:26;11.75;;;6.63;;
65757;SDS011;52495;52.208;5.158;2023-05-10T14:47:52;10.60;;;7.80;;
65757;SDS011;52495;52.208;5.158;2023-05-10T14:50:21;12.30;;;7.40;;